sensor_id;sensor_type;location;lat;lon;timestamp;P1;durP1;ratioP1;P2;durP2;ratioP2
64110;SDS011;50401;48.188;11.566;2023-04-12T00:01:25;8.90;;;2.88;;
64110;SDS011;50401;48.188;11.566;2023-04-12T00:03:51;8.35;;;2.78;;
64110;SDS011;50401;48.188;11.566;2023-04-12T00:06:18;9.43;;;2.83;;
64110;SDS011;50401;48.188;11.566;2023-04-12T00:08:49;6.97;;;3.05;;
64110;SDS011;50401;48.188;11.566;2023-04-12T00:11:15;8.85;;;3.08;;
64110;SDS011;50401;48.188;11.566;2023-04-12T00:13:40;7.88;;;3.50;;
64110;SDS011;50401;48.188;11.566;2023-04-12T00:16:06;10.85;;;3.08;;
64110;SDS011;50401;48.188;11.566;2023-04-12T00:18:33;12.68;;;3.15;;
64110;SDS011;50401;48.188;11.566;2023-04-12T00:20:58;8.10;;;3.28;;
64110;SDS011;50401;48.188;11.566;2023-04-12T00:23:23;13.80;;;3.55;;
64110;SDS011;50401;48.188;11.566;2023-04-12T00:25:49;10.85;;;2.97;;
64110;SDS011;50401;48.188;11.566;2023-04-12T00:28:14;6.20;;;2.72;;
64110;SDS011;50401;48.188;11.566;2023-04-12T00:30:40;5.95;;;3.15;;
64110;SDS011;50401;48.188;11.566;2023-04-12T00:33:05;6.78;;;3.67;;
64110;SDS011;50401;48.188;11.566;2023-04-12T00:35:31;6.00;;;2.70;;
64110;SDS011;50401;48.188;11.566;2023-04-12T00:37:56;7.20;;;3.15;;
64110;SDS011;50401;48.188;11.566;2023-04-12T00:40:22;14.63;;;3.20;;
64110;SDS011;50401;48.188;11.566;2023-04-12T00:42:47;8.52;;;3.00;;
64110;SDS011;50401;48.188;11.566;2023-04-12T00:45:12;7.00;;;3.15;;
64110;SDS011;50401;48.188;11.566;2023-04-12T00:47:38;17.42;;;4.03;;
64110;SDS011;50401;48.188;11.566;2023-04-12T00:50:06;8.30;;;2.90;;
64110;SDS011;50401;48.188;11.566;2023-04-12T00:52:34;7.82;;;3.28;;
64110;SDS011;50401;48.188;11.566;2023-04-12T00:55:00;9.07;;;2.83;;
64110;SDS011;50401;48.188;11.566;2023-04-12T00:57:29;7.25;;;2.85;;
64110;SDS011;50401;48.188;11.566;2023-04-12T00:59:58;6.88;;;3.20;;
64110;SDS011;50401;48.188;11.566;2023-04-12T01:02:23;14.95;;;3.47;;
64110;SDS011;50401;48.188;11.566;2023-04-12T01:04:49;9.25;;;3.60;;
64110;SDS011;50401;48.188;11.566;2023-04-12T01:07:22;5.57;;;2.92;;
64110;SDS011;50401;48.188;11.566;2023-04-12T01:09:58;13.25;;;3.38;;
64110;SDS011;50401;48.188;11.566;2023-04-12T01:15:16;10.77;;;2.90;;
64110;SDS011;50401;48.188;11.566;2023-04-12T01:17:44;7.88;;;3.78;;
64110;SDS011;50401;48.188;11.566;2023-04-12T01:20:15;8.68;;;2.65;;
64110;SDS011;50401;48.188;11.566;2023-04-12T01:28:12;11.60;;;3.47;;
64110;SDS011;50401;48.188;11.566;2023-04-12T01:30:43;10.05;;;2.80;;
64110;SDS011;50401;48.188;11.566;2023-04-12T01:33:10;10.27;;;3.10;;
64110;SDS011;50401;48.188;11.566;2023-04-12T01:35:37;8.95;;;3.08;;
64110;SDS011;50401;48.188;11.566;2023-04-12T01:38:03;19.60;;;3.45;;
64110;SDS011;50401;48.188;11.566;2023-04-12T01:40:30;14.57;;;3.55;;
64110;SDS011;50401;48.188;11.566;2023-04-12T01:43:05;15.73;;;3.70;;
64110;SDS011;50401;48.188;11.566;2023-04-12T01:45:38;8.50;;;3.58;;
64110;SDS011;50401;48.188;11.566;2023-04-12T01:48:04;9.43;;;3.65;;
64110;SDS011;50401;48.188;11.566;2023-04-12T01:51:17;10.35;;;4.28;;
64110;SDS011;50401;48.188;11.566;2023-04-12T01:55:58;10.73;;;4.43;;
64110;SDS011;50401;48.188;11.566;2023-04-12T01:58:28;14.82;;;4.78;;
64110;SDS011;50401;48.188;11.566;2023-04-12T02:00:55;15.43;;;4.93;;
64110;SDS011;50401;48.188;11.566;2023-04-12T02:03:22;10.63;;;3.72;;
64110;SDS011;50401;48.188;11.566;2023-04-12T02:05:49;10.50;;;3.75;;
64110;SDS011;50401;48.188;11.566;2023-04-12T02:08:19;9.35;;;2.88;;
64110;SDS011;50401;48.188;11.566;2023-04-12T02:10:44;9.75;;;2.42;;
64110;SDS011;50401;48.188;11.566;2023-04-12T02:13:10;2.75;;;1.60;;
64110;SDS011;50401;48.188;11.566;2023-04-12T02:15:36;5.07;;;2.28;;
64110;SDS011;50401;48.188;11.566;2023-04-12T02:18:02;3.08;;;1.73;;
64110;SDS011;50401;48.188;11.566;2023-04-12T02:20:27;5.70;;;2.20;;
64110;SDS011;50401;48.188;11.566;2023-04-12T02:22:53;5.25;;;1.92;;
64110;SDS011;50401;48.188;11.566;2023-04-12T02:25:18;6.15;;;1.98;;
64110;SDS011;50401;48.188;11.566;2023-04-12T02:27:44;6.40;;;2.45;;
64110;SDS011;50401;48.188;11.566;2023-04-12T02:30:10;9.82;;;2.05;;
64110;SDS011;50401;48.188;11.566;2023-04-12T02:32:36;6.85;;;2.40;;
64110;SDS011;50401;48.188;11.566;2023-04-12T02:35:09;7.13;;;2.40;;
64110;SDS011;50401;48.188;11.566;2023-04-12T02:37:38;7.03;;;2.20;;
64110;SDS011;50401;48.188;11.566;2023-04-12T02:40:04;5.85;;;2.33;;
64110;SDS011;50401;48.188;11.566;2023-04-12T02:42:31;7.88;;;2.40;;
64110;SDS011;50401;48.188;11.566;2023-04-12T02:44:57;7.53;;;2.20;;
64110;SDS011;50401;48.188;11.566;2023-04-12T02:47:22;6.80;;;2.80;;
64110;SDS011;50401;48.188;11.566;2023-04-12T02:49:52;8.60;;;2.47;;
64110;SDS011;50401;48.188;11.566;2023-04-12T02:52:17;6.30;;;2.10;;
64110;SDS011;50401;48.188;11.566;2023-04-12T02:54:43;5.18;;;1.90;;
64110;SDS011;50401;48.188;11.566;2023-04-12T02:57:08;4.07;;;1.88;;
64110;SDS011;50401;48.188;11.566;2023-04-12T02:59:35;6.82;;;2.65;;
64110;SDS011;50401;48.188;11.566;2023-04-12T03:02:00;6.85;;;2.30;;
64110;SDS011;50401;48.188;11.566;2023-04-12T03:04:26;6.93;;;2.50;;
64110;SDS011;50401;48.188;11.566;2023-04-12T03:06:57;8.68;;;2.60;;
64110;SDS011;50401;48.188;11.566;2023-04-12T03:09:22;12.95;;;2.92;;
64110;SDS011;50401;48.188;11.566;2023-04-12T03:11:49;6.00;;;2.88;;
64110;SDS011;50401;48.188;11.566;2023-04-12T03:14:14;11.85;;;3.03;;
64110;SDS011;50401;48.188;11.566;2023-04-12T03:16:40;7.65;;;2.95;;
64110;SDS011;50401;48.188;11.566;2023-04-12T03:19:05;6.95;;;3.08;;
64110;SDS011;50401;48.188;11.566;2023-04-12T03:21:31;9.30;;;3.38;;
64110;SDS011;50401;48.188;11.566;2023-04-12T03:23:57;11.68;;;3.15;;
64110;SDS011;50401;48.188;11.566;2023-04-12T03:26:23;9.07;;;3.50;;
64110;SDS011;50401;48.188;11.566;2023-04-12T03:28:50;9.05;;;3.03;;
64110;SDS011;50401;48.188;11.566;2023-04-12T03:31:16;11.25;;;3.53;;
64110;SDS011;50401;48.188;11.566;2023-04-12T03:33:44;14.88;;;3.40;;
64110;SDS011;50401;48.188;11.566;2023-04-12T03:36:10;11.55;;;3.47;;
64110;SDS011;50401;48.188;11.566;2023-04-12T03:38:35;11.43;;;3.63;;
64110;SDS011;50401;48.188;11.566;2023-04-12T03:41:01;12.40;;;3.67;;
64110;SDS011;50401;48.188;11.566;2023-04-12T03:43:26;10.80;;;3.88;;
64110;SDS011;50401;48.188;11.566;2023-04-12T03:45:52;9.98;;;3.42;;
64110;SDS011;50401;48.188;11.566;2023-04-12T03:48:17;13.32;;;3.17;;
64110;SDS011;50401;48.188;11.566;2023-04-12T03:50:43;8.80;;;2.90;;
64110;SDS011;50401;48.188;11.566;2023-04-12T03:53:09;10.15;;;3.35;;
64110;SDS011;50401;48.188;11.566;2023-04-12T03:55:35;9.10;;;2.83;;
64110;SDS011;50401;48.188;11.566;2023-04-12T03:58:01;9.35;;;3.10;;
64110;SDS011;50401;48.188;11.566;2023-04-12T04:00:27;8.68;;;3.60;;
64110;SDS011;50401;48.188;11.566;2023-04-12T04:02:53;19.58;;;5.03;;
64110;SDS011;50401;48.188;11.566;2023-04-12T04:05:18;21.65;;;4.60;;
64110;SDS011;50401;48.188;11.566;2023-04-12T04:07:44;7.88;;;3.95;;
64110;SDS011;50401;48.188;11.566;2023-04-12T04:10:09;10.48;;;3.20;;
64110;SDS011;50401;48.188;11.566;2023-04-12T04:12:35;5.70;;;2.65;;
64110;SDS011;50401;48.188;11.566;2023-04-12T04:15:00;13.02;;;3.03;;
64110;SDS011;50401;48.188;11.566;2023-04-12T04:17:26;11.05;;;3.17;;
64110;SDS011;50401;48.188;11.566;2023-04-12T04:19:51;15.43;;;3.05;;
64110;SDS011;50401;48.188;11.566;2023-04-12T04:22:16;10.30;;;3.35;;
64110;SDS011;50401;48.188;11.566;2023-04-12T04:24:45;10.73;;;3.05;;
64110;SDS011;50401;48.188;11.566;2023-04-12T04:27:12;13.35;;;3.00;;
64110;SDS011;50401;48.188;11.566;2023-04-12T04:29:39;10.95;;;3.30;;
64110;SDS011;50401;48.188;11.566;2023-04-12T04:32:09;11.40;;;3.72;;
64110;SDS011;50401;48.188;11.566;2023-04-12T04:34:36;7.70;;;3.25;;
64110;SDS011;50401;48.188;11.566;2023-04-12T04:37:02;13.68;;;2.85;;
64110;SDS011;50401;48.188;11.566;2023-04-12T04:39:27;12.90;;;2.85;;
64110;SDS011;50401;48.188;11.566;2023-04-12T04:41:53;14.55;;;3.67;;
64110;SDS011;50401;48.188;11.566;2023-04-12T04:44:18;9.98;;;3.00;;
64110;SDS011;50401;48.188;11.566;2023-04-12T04:46:44;16.33;;;3.08;;
64110;SDS011;50401;48.188;11.566;2023-04-12T04:49:10;9.02;;;3.10;;
64110;SDS011;50401;48.188;11.566;2023-04-12T04:51:35;7.88;;;2.60;;
64110;SDS011;50401;48.188;11.566;2023-04-12T04:54:01;10.95;;;3.17;;
64110;SDS011;50401;48.188;11.566;2023-04-12T04:56:27;8.80;;;2.85;;
64110;SDS011;50401;48.188;11.566;2023-04-12T04:58:52;17.60;;;3.03;;
64110;SDS011;50401;48.188;11.566;2023-04-12T05:01:18;15.43;;;3.58;;
64110;SDS011;50401;48.188;11.566;2023-04-12T05:03:43;11.20;;;2.60;;
64110;SDS011;50401;48.188;11.566;2023-04-12T05:06:11;7.93;;;2.33;;
64110;SDS011;50401;48.188;11.566;2023-04-12T05:08:37;6.28;;;3.00;;
64110;SDS011;50401;48.188;11.566;2023-04-12T05:11:03;13.75;;;2.97;;
64110;SDS011;50401;48.188;11.566;2023-04-12T05:13:28;9.52;;;3.35;;
64110;SDS011;50401;48.188;11.566;2023-04-12T05:15:54;9.30;;;2.75;;
64110;SDS011;50401;48.188;11.566;2023-04-12T05:18:19;6.50;;;2.47;;
64110;SDS011;50401;48.188;11.566;2023-04-12T05:20:45;8.95;;;3.08;;
64110;SDS011;50401;48.188;11.566;2023-04-12T05:23:12;9.93;;;3.10;;
64110;SDS011;50401;48.188;11.566;2023-04-12T05:25:42;7.80;;;2.67;;
64110;SDS011;50401;48.188;11.566;2023-04-12T05:28:08;15.40;;;3.03;;
64110;SDS011;50401;48.188;11.566;2023-04-12T05:30:38;9.45;;;2.85;;
64110;SDS011;50401;48.188;11.566;2023-04-12T05:33:04;16.08;;;2.92;;
64110;SDS011;50401;48.188;11.566;2023-04-12T05:35:29;12.00;;;3.00;;
64110;SDS011;50401;48.188;11.566;2023-04-12T05:37:55;5.45;;;2.20;;
64110;SDS011;50401;48.188;11.566;2023-04-12T05:40:23;13.93;;;3.67;;
64110;SDS011;50401;48.188;11.566;2023-04-12T05:42:49;7.25;;;2.42;;
64110;SDS011;50401;48.188;11.566;2023-04-12T05:45:14;12.00;;;3.60;;
64110;SDS011;50401;48.188;11.566;2023-04-12T05:47:40;7.78;;;2.58;;
64110;SDS011;50401;48.188;11.566;2023-04-12T05:50:05;6.05;;;2.70;;
64110;SDS011;50401;48.188;11.566;2023-04-12T05:52:31;8.82;;;2.90;;
64110;SDS011;50401;48.188;11.566;2023-04-12T05:54:57;14.63;;;2.97;;
64110;SDS011;50401;48.188;11.566;2023-04-12T05:57:22;11.48;;;3.60;;
64110;SDS011;50401;48.188;11.566;2023-04-12T05:59:47;12.38;;;2.92;;
64110;SDS011;50401;48.188;11.566;2023-04-12T06:02:13;10.73;;;3.17;;
64110;SDS011;50401;48.188;11.566;2023-04-12T06:04:38;9.38;;;2.08;;
64110;SDS011;50401;48.188;11.566;2023-04-12T06:07:04;16.83;;;3.47;;
64110;SDS011;50401;48.188;11.566;2023-04-12T06:09:30;7.07;;;2.33;;
64110;SDS011;50401;48.188;11.566;2023-04-12T06:11:56;17.20;;;3.20;;
64110;SDS011;50401;48.188;11.566;2023-04-12T06:14:21;8.70;;;2.53;;
64110;SDS011;50401;48.188;11.566;2023-04-12T06:16:47;5.55;;;2.63;;
64110;SDS011;50401;48.188;11.566;2023-04-12T06:19:13;4.28;;;2.53;;
64110;SDS011;50401;48.188;11.566;2023-04-12T06:21:38;6.15;;;2.88;;
64110;SDS011;50401;48.188;11.566;2023-04-12T06:24:03;11.75;;;3.47;;
64110;SDS011;50401;48.188;11.566;2023-04-12T06:26:29;9.75;;;2.50;;
64110;SDS011;50401;48.188;11.566;2023-04-12T06:28:54;11.38;;;4.75;;
64110;SDS011;50401;48.188;11.566;2023-04-12T06:31:20;9.32;;;2.65;;
64110;SDS011;50401;48.188;11.566;2023-04-12T06:33:46;16.20;;;5.30;;
64110;SDS011;50401;48.188;11.566;2023-04-12T06:36:11;16.08;;;6.00;;
64110;SDS011;50401;48.188;11.566;2023-04-12T06:38:38;8.82;;;2.92;;
64110;SDS011;50401;48.188;11.566;2023-04-12T06:41:04;7.88;;;3.00;;
64110;SDS011;50401;48.188;11.566;2023-04-12T06:43:30;10.02;;;2.92;;
64110;SDS011;50401;48.188;11.566;2023-04-12T06:45:56;9.88;;;2.70;;
64110;SDS011;50401;48.188;11.566;2023-04-12T06:48:22;14.13;;;3.58;;
64110;SDS011;50401;48.188;11.566;2023-04-12T06:50:47;8.50;;;2.97;;
64110;SDS011;50401;48.188;11.566;2023-04-12T06:53:12;14.93;;;3.00;;
64110;SDS011;50401;48.188;11.566;2023-04-12T06:55:38;13.55;;;3.70;;
64110;SDS011;50401;48.188;11.566;2023-04-12T06:58:04;7.40;;;2.75;;
64110;SDS011;50401;48.188;11.566;2023-04-12T07:00:30;12.45;;;3.17;;
64110;SDS011;50401;48.188;11.566;2023-04-12T07:02:55;8.13;;;2.83;;
64110;SDS011;50401;48.188;11.566;2023-04-12T07:05:21;12.05;;;3.13;;
64110;SDS011;50401;48.188;11.566;2023-04-12T07:07:46;7.63;;;2.70;;
64110;SDS011;50401;48.188;11.566;2023-04-12T07:10:11;10.38;;;3.65;;
64110;SDS011;50401;48.188;11.566;2023-04-12T07:12:37;8.88;;;3.03;;
64110;SDS011;50401;48.188;11.566;2023-04-12T07:15:02;15.45;;;3.70;;
64110;SDS011;50401;48.188;11.566;2023-04-12T07:17:28;7.00;;;3.92;;
64110;SDS011;50401;48.188;11.566;2023-04-12T07:19:53;16.80;;;3.88;;
64110;SDS011;50401;48.188;11.566;2023-04-12T07:22:19;8.00;;;3.38;;
64110;SDS011;50401;48.188;11.566;2023-04-12T07:24:45;15.57;;;4.35;;
64110;SDS011;50401;48.188;11.566;2023-04-12T07:27:11;15.40;;;4.70;;
64110;SDS011;50401;48.188;11.566;2023-04-12T07:29:36;33.15;;;9.90;;
64110;SDS011;50401;48.188;11.566;2023-04-12T07:32:02;18.55;;;4.55;;
64110;SDS011;50401;48.188;11.566;2023-04-12T07:34:28;23.42;;;6.43;;
64110;SDS011;50401;48.188;11.566;2023-04-12T07:36:54;9.52;;;2.97;;
64110;SDS011;50401;48.188;11.566;2023-04-12T07:39:20;5.97;;;3.00;;
64110;SDS011;50401;48.188;11.566;2023-04-12T07:41:45;8.73;;;3.25;;
64110;SDS011;50401;48.188;11.566;2023-04-12T07:44:12;9.23;;;3.38;;
64110;SDS011;50401;48.188;11.566;2023-04-12T07:46:37;5.63;;;2.90;;
64110;SDS011;50401;48.188;11.566;2023-04-12T07:49:03;9.00;;;2.72;;
64110;SDS011;50401;48.188;11.566;2023-04-12T07:51:28;7.05;;;3.13;;
64110;SDS011;50401;48.188;11.566;2023-04-12T07:53:56;9.73;;;3.45;;
64110;SDS011;50401;48.188;11.566;2023-04-12T07:56:22;6.43;;;2.80;;
64110;SDS011;50401;48.188;11.566;2023-04-12T07:58:47;13.13;;;4.55;;
64110;SDS011;50401;48.188;11.566;2023-04-12T08:01:13;14.77;;;3.90;;
64110;SDS011;50401;48.188;11.566;2023-04-12T08:03:39;13.88;;;5.32;;
64110;SDS011;50401;48.188;11.566;2023-04-12T08:06:05;12.32;;;5.03;;
64110;SDS011;50401;48.188;11.566;2023-04-12T08:08:31;14.80;;;6.03;;
64110;SDS011;50401;48.188;11.566;2023-04-12T08:10:57;9.65;;;5.53;;
64110;SDS011;50401;48.188;11.566;2023-04-12T08:13:22;6.45;;;3.03;;
64110;SDS011;50401;48.188;11.566;2023-04-12T08:15:47;9.55;;;2.90;;
64110;SDS011;50401;48.188;11.566;2023-04-12T08:18:13;5.35;;;2.83;;
64110;SDS011;50401;48.188;11.566;2023-04-12T08:20:38;7.40;;;3.30;;
64110;SDS011;50401;48.188;11.566;2023-04-12T08:23:11;6.18;;;2.85;;
64110;SDS011;50401;48.188;11.566;2023-04-12T08:25:36;16.70;;;3.78;;
64110;SDS011;50401;48.188;11.566;2023-04-12T08:28:02;9.60;;;3.25;;
64110;SDS011;50401;48.188;11.566;2023-04-12T08:30:28;12.88;;;3.00;;
64110;SDS011;50401;48.188;11.566;2023-04-12T08:32:53;9.07;;;3.20;;
64110;SDS011;50401;48.188;11.566;2023-04-12T08:35:19;8.60;;;3.30;;
64110;SDS011;50401;48.188;11.566;2023-04-12T08:37:46;9.10;;;2.90;;
64110;SDS011;50401;48.188;11.566;2023-04-12T08:40:11;9.82;;;3.30;;
64110;SDS011;50401;48.188;11.566;2023-04-12T08:42:37;8.65;;;3.72;;
64110;SDS011;50401;48.188;11.566;2023-04-12T08:45:07;16.55;;;6.03;;
64110;SDS011;50401;48.188;11.566;2023-04-12T08:47:34;14.80;;;3.70;;
64110;SDS011;50401;48.188;11.566;2023-04-12T08:50:02;5.30;;;2.85;;
64110;SDS011;50401;48.188;11.566;2023-04-12T08:52:29;9.20;;;3.45;;
64110;SDS011;50401;48.188;11.566;2023-04-12T08:54:57;6.38;;;2.78;;
64110;SDS011;50401;48.188;11.566;2023-04-12T08:57:26;8.57;;;2.92;;
64110;SDS011;50401;48.188;11.566;2023-04-12T08:59:52;10.35;;;3.35;;
64110;SDS011;50401;48.188;11.566;2023-04-12T09:02:18;5.68;;;2.50;;
64110;SDS011;50401;48.188;11.566;2023-04-12T09:04:49;9.93;;;2.53;;
64110;SDS011;50401;48.188;11.566;2023-04-12T09:07:17;5.22;;;2.63;;
64110;SDS011;50401;48.188;11.566;2023-04-12T09:09:43;7.93;;;2.92;;
64110;SDS011;50401;48.188;11.566;2023-04-12T09:12:10;4.25;;;2.63;;
64110;SDS011;50401;48.188;11.566;2023-04-12T09:14:37;8.90;;;2.78;;
64110;SDS011;50401;48.188;11.566;2023-04-12T09:17:04;6.07;;;2.63;;
64110;SDS011;50401;48.188;11.566;2023-04-12T09:19:33;6.80;;;2.55;;
64110;SDS011;50401;48.188;11.566;2023-04-12T09:21:59;7.35;;;2.72;;
64110;SDS011;50401;48.188;11.566;2023-04-12T09:24:26;5.72;;;1.70;;
64110;SDS011;50401;48.188;11.566;2023-04-12T09:27:05;2.63;;;2.08;;
64110;SDS011;50401;48.188;11.566;2023-04-12T09:29:31;5.60;;;2.15;;
64110;SDS011;50401;48.188;11.566;2023-04-12T09:32:01;3.28;;;2.13;;
64110;SDS011;50401;48.188;11.566;2023-04-12T09:34:31;4.72;;;2.45;;
64110;SDS011;50401;48.188;11.566;2023-04-12T09:36:57;8.60;;;2.10;;
64110;SDS011;50401;48.188;11.566;2023-04-12T09:39:29;12.35;;;3.22;;
64110;SDS011;50401;48.188;11.566;2023-04-12T09:42:07;4.47;;;2.33;;
64110;SDS011;50401;48.188;11.566;2023-04-12T09:44:35;3.85;;;1.83;;
64110;SDS011;50401;48.188;11.566;2023-04-12T09:47:01;7.07;;;1.83;;
64110;SDS011;50401;48.188;11.566;2023-04-12T09:49:38;5.97;;;1.98;;
64110;SDS011;50401;48.188;11.566;2023-04-12T09:52:08;5.03;;;2.28;;
64110;SDS011;50401;48.188;11.566;2023-04-12T09:54:47;4.38;;;1.90;;
64110;SDS011;50401;48.188;11.566;2023-04-12T09:57:15;3.65;;;2.00;;
64110;SDS011;50401;48.188;11.566;2023-04-12T09:59:41;2.60;;;1.70;;
64110;SDS011;50401;48.188;11.566;2023-04-12T10:02:15;2.67;;;1.73;;
64110;SDS011;50401;48.188;11.566;2023-04-12T10:04:44;5.13;;;2.63;;
64110;SDS011;50401;48.188;11.566;2023-04-12T10:07:12;4.80;;;2.67;;
64110;SDS011;50401;48.188;11.566;2023-04-12T10:09:39;3.88;;;2.13;;
64110;SDS011;50401;48.188;11.566;2023-04-12T10:12:05;3.10;;;1.58;;
64110;SDS011;50401;48.188;11.566;2023-04-12T10:14:32;4.50;;;1.63;;
64110;SDS011;50401;48.188;11.566;2023-04-12T10:16:59;2.83;;;1.55;;
64110;SDS011;50401;48.188;11.566;2023-04-12T10:19:25;1.92;;;1.35;;
64110;SDS011;50401;48.188;11.566;2023-04-12T10:21:53;3.70;;;1.50;;
64110;SDS011;50401;48.188;11.566;2023-04-12T10:24:20;3.60;;;1.42;;
64110;SDS011;50401;48.188;11.566;2023-04-12T10:26:47;6.93;;;1.40;;
64110;SDS011;50401;48.188;11.566;2023-04-12T10:29:21;1.75;;;1.23;;
64110;SDS011;50401;48.188;11.566;2023-04-12T10:31:49;2.92;;;1.02;;
64110;SDS011;50401;48.188;11.566;2023-04-12T10:34:14;7.53;;;1.20;;
64110;SDS011;50401;48.188;11.566;2023-04-12T10:37:23;4.07;;;1.52;;
64110;SDS011;50401;48.188;11.566;2023-04-12T10:42:13;5.75;;;1.20;;
64110;SDS011;50401;48.188;11.566;2023-04-12T10:44:39;1.75;;;1.02;;
64110;SDS011;50401;48.188;11.566;2023-04-12T10:47:04;2.92;;;1.17;;
64110;SDS011;50401;48.188;11.566;2023-04-12T10:49:30;3.25;;;1.20;;
64110;SDS011;50401;48.188;11.566;2023-04-12T10:56:53;2.17;;;1.15;;
64110;SDS011;50401;48.188;11.566;2023-04-12T10:59:19;3.55;;;1.52;;
64110;SDS011;50401;48.188;11.566;2023-04-12T11:04:28;28.88;;;6.68;;
64110;SDS011;50401;48.188;11.566;2023-04-12T11:07:00;13.57;;;2.20;;
64110;SDS011;50401;48.188;11.566;2023-04-12T11:14:36;3.50;;;1.40;;
64110;SDS011;50401;48.188;11.566;2023-04-12T11:19:34;2.88;;;1.20;;
64110;SDS011;50401;48.188;11.566;2023-04-12T11:22:08;0.98;;;0.93;;
64110;SDS011;50401;48.188;11.566;2023-04-12T11:24:38;3.38;;;1.20;;
64110;SDS011;50401;48.188;11.566;2023-04-12T11:27:05;1.10;;;0.95;;
64110;SDS011;50401;48.188;11.566;2023-04-12T11:29:31;2.08;;;1.10;;
64110;SDS011;50401;48.188;11.566;2023-04-12T11:31:57;1.45;;;0.95;;
64110;SDS011;50401;48.188;11.566;2023-04-12T11:34:23;2.50;;;0.98;;
64110;SDS011;50401;48.188;11.566;2023-04-12T11:36:52;2.03;;;1.13;;
64110;SDS011;50401;48.188;11.566;2023-04-12T11:39:19;1.23;;;1.13;;
64110;SDS011;50401;48.188;11.566;2023-04-12T11:41:46;2.33;;;1.30;;
64110;SDS011;50401;48.188;11.566;2023-04-12T11:44:13;3.10;;;1.35;;
64110;SDS011;50401;48.188;11.566;2023-04-12T11:46:43;2.08;;;1.10;;
64110;SDS011;50401;48.188;11.566;2023-04-12T11:49:08;2.22;;;1.55;;
64110;SDS011;50401;48.188;11.566;2023-04-12T11:51:34;1.15;;;1.10;;
64110;SDS011;50401;48.188;11.566;2023-04-12T11:54:00;1.63;;;0.90;;
64110;SDS011;50401;48.188;11.566;2023-04-12T11:56:27;3.35;;;1.15;;
64110;SDS011;50401;48.188;11.566;2023-04-12T11:58:53;5.07;;;1.05;;
64110;SDS011;50401;48.188;11.566;2023-04-12T12:01:19;2.17;;;1.35;;
64110;SDS011;50401;48.188;11.566;2023-04-12T12:03:46;2.67;;;1.30;;
64110;SDS011;50401;48.188;11.566;2023-04-12T12:06:14;6.75;;;1.27;;
64110;SDS011;50401;48.188;11.566;2023-04-12T12:08:40;3.38;;;1.30;;
64110;SDS011;50401;48.188;11.566;2023-04-12T12:11:06;3.50;;;1.73;;
64110;SDS011;50401;48.188;11.566;2023-04-12T12:16:09;2.33;;;1.38;;
64110;SDS011;50401;48.188;11.566;2023-04-12T12:18:38;2.47;;;1.38;;
64110;SDS011;50401;48.188;11.566;2023-04-12T12:21:07;1.65;;;1.35;;
64110;SDS011;50401;48.188;11.566;2023-04-12T12:23:34;2.25;;;1.40;;
64110;SDS011;50401;48.188;11.566;2023-04-12T12:26:00;3.83;;;1.52;;
64110;SDS011;50401;48.188;11.566;2023-04-12T12:28:29;8.15;;;2.00;;
64110;SDS011;50401;48.188;11.566;2023-04-12T12:30:55;4.72;;;1.52;;
64110;SDS011;50401;48.188;11.566;2023-04-12T12:33:24;4.45;;;1.92;;
64110;SDS011;50401;48.188;11.566;2023-04-12T12:36:01;5.05;;;1.67;;
64110;SDS011;50401;48.188;11.566;2023-04-12T12:38:33;5.97;;;2.25;;
64110;SDS011;50401;48.188;11.566;2023-04-12T12:43:47;4.43;;;1.60;;
64110;SDS011;50401;48.188;11.566;2023-04-12T12:46:14;5.10;;;1.67;;
64110;SDS011;50401;48.188;11.566;2023-04-12T12:48:41;2.35;;;1.60;;
64110;SDS011;50401;48.188;11.566;2023-04-12T12:51:08;2.97;;;1.60;;
64110;SDS011;50401;48.188;11.566;2023-04-12T12:53:38;8.85;;;1.90;;
64110;SDS011;50401;48.188;11.566;2023-04-12T12:56:05;2.33;;;1.60;;
64110;SDS011;50401;48.188;11.566;2023-04-12T12:58:32;6.85;;;2.33;;
64110;SDS011;50401;48.188;11.566;2023-04-12T13:00:58;6.75;;;1.63;;
64110;SDS011;50401;48.188;11.566;2023-04-12T13:03:23;3.20;;;1.35;;
64110;SDS011;50401;48.188;11.566;2023-04-12T13:05:49;8.55;;;1.88;;
64110;SDS011;50401;48.188;11.566;2023-04-12T13:08:15;1.98;;;1.40;;
64110;SDS011;50401;48.188;11.566;2023-04-12T13:10:40;2.75;;;1.48;;
64110;SDS011;50401;48.188;11.566;2023-04-12T13:13:06;1.33;;;1.23;;
64110;SDS011;50401;48.188;11.566;2023-04-12T13:15:31;2.83;;;1.25;;
64110;SDS011;50401;48.188;11.566;2023-04-12T13:17:56;11.15;;;2.30;;
64110;SDS011;50401;48.188;11.566;2023-04-12T13:20:22;8.82;;;2.50;;
64110;SDS011;50401;48.188;11.566;2023-04-12T13:22:48;4.25;;;1.50;;
64110;SDS011;50401;48.188;11.566;2023-04-12T13:25:14;4.65;;;1.90;;
64110;SDS011;50401;48.188;11.566;2023-04-12T13:27:39;7.00;;;1.33;;
64110;SDS011;50401;48.188;11.566;2023-04-12T13:30:05;4.68;;;1.15;;
64110;SDS011;50401;48.188;11.566;2023-04-12T13:32:32;5.90;;;1.45;;
64110;SDS011;50401;48.188;11.566;2023-04-12T13:34:57;9.73;;;2.63;;
64110;SDS011;50401;48.188;11.566;2023-04-12T13:37:23;5.03;;;2.20;;
64110;SDS011;50401;48.188;11.566;2023-04-12T13:39:49;10.45;;;1.90;;
64110;SDS011;50401;48.188;11.566;2023-04-12T13:42:15;7.47;;;1.40;;
64110;SDS011;50401;48.188;11.566;2023-04-12T13:44:40;11.32;;;1.80;;
64110;SDS011;50401;48.188;11.566;2023-04-12T13:47:06;4.57;;;1.98;;
64110;SDS011;50401;48.188;11.566;2023-04-12T13:49:31;10.00;;;1.50;;
64110;SDS011;50401;48.188;11.566;2023-04-12T13:51:57;3.90;;;1.77;;
64110;SDS011;50401;48.188;11.566;2023-04-12T13:54:22;7.13;;;1.80;;
64110;SDS011;50401;48.188;11.566;2023-04-12T13:56:47;4.85;;;1.67;;
64110;SDS011;50401;48.188;11.566;2023-04-12T13:59:13;2.50;;;1.60;;
64110;SDS011;50401;48.188;11.566;2023-04-12T14:01:39;3.17;;;1.27;;
64110;SDS011;50401;48.188;11.566;2023-04-12T14:04:04;2.60;;;1.23;;
64110;SDS011;50401;48.188;11.566;2023-04-12T14:06:30;3.08;;;1.33;;
64110;SDS011;50401;48.188;11.566;2023-04-12T14:08:57;6.53;;;1.63;;
64110;SDS011;50401;48.188;11.566;2023-04-12T14:11:22;3.83;;;1.42;;
64110;SDS011;50401;48.188;11.566;2023-04-12T14:13:49;3.60;;;1.40;;
64110;SDS011;50401;48.188;11.566;2023-04-12T14:16:14;4.35;;;1.20;;
64110;SDS011;50401;48.188;11.566;2023-04-12T14:18:40;2.83;;;1.45;;
64110;SDS011;50401;48.188;11.566;2023-04-12T14:21:05;9.02;;;1.65;;
64110;SDS011;50401;48.188;11.566;2023-04-12T14:23:33;11.18;;;1.70;;
64110;SDS011;50401;48.188;11.566;2023-04-12T14:25:58;9.07;;;1.73;;
64110;SDS011;50401;48.188;11.566;2023-04-12T14:28:23;8.73;;;1.33;;
64110;SDS011;50401;48.188;11.566;2023-04-12T14:30:54;16.83;;;2.90;;
64110;SDS011;50401;48.188;11.566;2023-04-12T14:33:20;13.73;;;1.60;;
64110;SDS011;50401;48.188;11.566;2023-04-12T14:35:45;6.13;;;1.40;;
64110;SDS011;50401;48.188;11.566;2023-04-12T14:38:11;7.18;;;1.50;;
64110;SDS011;50401;48.188;11.566;2023-04-12T14:40:36;8.05;;;2.00;;
64110;SDS011;50401;48.188;11.566;2023-04-12T14:43:02;13.50;;;2.38;;
64110;SDS011;50401;48.188;11.566;2023-04-12T14:45:27;14.07;;;1.98;;
64110;SDS011;50401;48.188;11.566;2023-04-12T14:47:53;9.95;;;2.05;;
64110;SDS011;50401;48.188;11.566;2023-04-12T14:50:18;2.55;;;1.38;;
64110;SDS011;50401;48.188;11.566;2023-04-12T14:52:44;7.40;;;1.60;;
64110;SDS011;50401;48.188;11.566;2023-04-12T14:55:09;12.43;;;2.33;;
64110;SDS011;50401;48.188;11.566;2023-04-12T14:57:35;15.77;;;1.60;;
64110;SDS011;50401;48.188;11.566;2023-04-12T15:00:01;10.32;;;1.17;;
64110;SDS011;50401;48.188;11.566;2023-04-12T15:02:26;8.05;;;1.38;;